createdAt,value
2022-12-26T00:00:23.665Z,101029.47
2022-12-26T00:02:50.215Z,101024.91
2022-12-26T00:05:16.954Z,101025.31
2022-12-26T00:07:43.543Z,101023.41
2022-12-26T00:10:10.224Z,101020.78
2022-12-26T00:12:36.759Z,101037.00
2022-12-26T00:15:04.204Z,101032.88
2022-12-26T00:17:30.731Z,101035.19
2022-12-26T00:19:57.164Z,101036.69
2022-12-26T00:22:23.617Z,101032.13
2022-12-26T00:24:50.047Z,101038.19
2022-12-26T00:27:16.474Z,101036.69
2022-12-26T00:29:43.666Z,101041.56
2022-12-26T00:32:10.135Z,101050.28
2022-12-26T00:34:36.886Z,101061.31
2022-12-26T00:37:03.352Z,101063.97
2022-12-26T00:39:29.852Z,101057.16
2022-12-26T00:41:56.342Z,101056.00
2022-12-26T00:44:22.818Z,101068.53
2022-12-26T00:46:49.541Z,101066.59
2022-12-26T00:49:16.053Z,101067.78
2022-12-26T00:51:42.774Z,101065.53
2022-12-26T00:54:09.300Z,101066.66
2022-12-26T00:56:35.748Z,101070.06
2022-12-26T00:59:02.222Z,101064.75
2022-12-26T01:01:31.145Z,101067.06
2022-12-26T01:03:57.866Z,101082.56
2022-12-26T01:06:24.526Z,101079.94
2022-12-26T01:08:51.366Z,101078.44
2022-12-26T01:11:40.079Z,101077.69
2022-12-26T01:14:12.357Z,101067.81
2022-12-26T01:16:40.882Z,101068.97
2022-12-26T01:19:07.970Z,101070.47
2022-12-26T01:21:34.586Z,101071.97
2022-12-26T01:24:01.643Z,101079.19
2022-12-26T01:26:28.169Z,101067.81
2022-12-26T01:28:54.818Z,101069.72
2022-12-26T01:31:22.657Z,101067.81
2022-12-26T01:33:49.950Z,101056.06
2022-12-26T01:36:17.461Z,101059.88
2022-12-26T01:38:44.340Z,101055.72
2022-12-26T01:41:17.710Z,101057.97
2022-12-26T01:44:06.428Z,101062.09
2022-12-26T01:46:38.933Z,101066.66
2022-12-26T01:49:40.348Z,101064.00
2022-12-26T01:52:13.515Z,101064.00
2022-12-26T01:54:43.254Z,101074.25
2022-12-26T01:57:14.647Z,101091.28
2022-12-26T01:59:42.067Z,101077.28
2022-12-26T02:02:09.979Z,101075.38
2022-12-26T02:04:59.158Z,101079.19
2022-12-26T02:07:26.622Z,101069.31
2022-12-26T02:09:53.673Z,101071.22
2022-12-26T02:12:34.040Z,101074.25
2022-12-26T02:15:11.417Z,101068.19
2022-12-26T02:17:40.082Z,101056.06
2022-12-26T02:20:18.713Z,101046.19
2022-12-26T02:23:10.146Z,101059.13
2022-12-26T02:25:45.918Z,101059.53
2022-12-26T02:28:37.485Z,101059.19
2022-12-26T02:31:32.033Z,101060.38
2022-12-26T02:33:58.567Z,101069.47
2022-12-26T02:37:01.232Z,101068.72
2022-12-26T02:39:57.295Z,101068.00
2022-12-26T02:42:48.307Z,101070.63
2022-12-26T02:45:44.855Z,101056.63
2022-12-26T02:48:33.753Z,101061.59
2022-12-26T02:51:35.904Z,101055.56
2022-12-26T02:54:46.920Z,101063.19
2022-12-26T02:57:37.953Z,101050.34
2022-12-26T03:00:36.175Z,101053.06
2022-12-26T03:03:26.566Z,101050.81
2022-12-26T03:06:17.423Z,101053.88
2022-12-26T03:09:08.338Z,101050.06
2022-12-26T03:11:59.243Z,101046.34
2022-12-26T03:14:33.235Z,101039.13
2022-12-26T03:17:20.669Z,101050.16
2022-12-26T03:19:59.723Z,101053.13
2022-12-26T03:22:32.176Z,101056.53
2022-12-26T03:25:21.439Z,101062.59
2022-12-26T03:27:47.925Z,101069.38
2022-12-26T03:30:33.498Z,101070.13
2022-12-26T03:33:00.132Z,101075.44
2022-12-26T03:35:31.016Z,101076.94
2022-12-26T03:38:08.079Z,101070.13
2022-12-26T03:41:05.034Z,101062.59
2022-12-26T03:44:05.067Z,101064.91
2022-12-26T03:47:22.550Z,101066.81
2022-12-26T03:50:15.240Z,101062.25
2022-12-26T03:53:25.115Z,101067.56
2022-12-26T03:56:17.571Z,101076.25
2022-12-26T03:59:13.553Z,101066.81
2022-12-26T04:02:01.715Z,101062.25
2022-12-26T04:04:49.470Z,101053.97
2022-12-26T04:07:56.444Z,101058.53
2022-12-26T04:10:48.626Z,101055.53
2022-12-26T04:13:42.859Z,101060.84
2022-12-26T04:17:09.221Z,101053.31
2022-12-26T04:19:58.230Z,101061.66
2022-12-26T04:22:56.261Z,101063.91
2022-12-26T04:25:48.468Z,101067.72
2022-12-26T04:28:37.203Z,101067.81
2022-12-26T04:31:32.930Z,101067.50
2022-12-26T04:34:27.695Z,101067.16
2022-12-26T04:37:19.695Z,101074.44
2022-12-26T04:40:08.150Z,101075.25
2022-12-26T04:42:54.666Z,101070.38
2022-12-26T04:45:22.877Z,101071.94
2022-12-26T04:48:09.698Z,101072.00
2022-12-26T04:50:36.365Z,101070.94
2022-12-26T04:53:02.929Z,101064.13
2022-12-26T04:55:35.675Z,101056.59
2022-12-26T04:58:03.121Z,101058.16
2022-12-26T05:00:29.604Z,101055.91
2022-12-26T05:03:19.141Z,101058.56
2022-12-26T05:06:07.595Z,101049.88
2022-12-26T05:08:56.652Z,101051.03
2022-12-26T05:11:24.282Z,101045.81
2022-12-26T05:13:55.029Z,101043.56
2022-12-26T05:16:40.863Z,101034.13
2022-12-26T05:19:29.758Z,101036.88
2022-12-26T05:22:15.549Z,101039.94
2022-12-26T05:25:02.277Z,101042.59
2022-12-26T05:27:53.902Z,101038.09
2022-12-26T05:30:20.418Z,101040.75
2022-12-26T05:33:05.342Z,101041.56
2022-12-26T05:35:32.864Z,101041.56
2022-12-26T05:37:59.474Z,101056.72
2022-12-26T05:40:25.974Z,101058.63
2022-12-26T05:42:52.683Z,101058.28
2022-12-26T05:45:19.711Z,101045.44
2022-12-26T05:47:51.622Z,101050.41
2022-12-26T05:50:18.576Z,101058.75
2022-12-26T05:52:45.039Z,101057.28
2022-12-26T05:55:12.163Z,101066.78
2022-12-26T05:57:38.670Z,101063.78
2022-12-26T06:00:05.693Z,101058.91
2022-12-26T06:02:32.288Z,101059.31
2022-12-26T06:04:58.854Z,101050.28
2022-12-26T06:07:25.371Z,101048.78
2022-12-26T06:09:51.825Z,101036.69
2022-12-26T06:12:18.324Z,101042.00
2022-12-26T06:14:44.742Z,101048.84
2022-12-26T06:17:11.227Z,101044.72
2022-12-26T06:19:43.008Z,101049.25
2022-12-26T06:22:12.872Z,101056.03
2022-12-26T06:24:39.329Z,101063.19
2022-12-26T06:27:05.856Z,101055.56
2022-12-26T06:29:32.381Z,101051.03
2022-12-26T06:31:59.091Z,101043.06
2022-12-26T06:34:27.623Z,101044.97
2022-12-26T06:36:55.429Z,101056.72
2022-12-26T06:39:23.001Z,101059.44
2022-12-26T06:41:49.860Z,101057.19
2022-12-26T06:44:18.724Z,101056.47
2022-12-26T06:46:45.518Z,101056.47
2022-12-26T06:49:12.023Z,101066.31
2022-12-26T06:51:38.537Z,101067.44
2022-12-26T06:54:05.139Z,101073.50
2022-12-26T06:56:32.374Z,101080.28
2022-12-26T06:59:01.136Z,101078.38
2022-12-26T07:01:29.801Z,101070.44
2022-12-26T07:03:57.323Z,101075.00
2022-12-26T07:06:29.932Z,101067.78
2022-12-26T07:08:59.086Z,101071.53
2022-12-26T07:11:29.096Z,101074.84
2022-12-26T07:13:56.265Z,101073.63
2022-12-26T07:16:23.444Z,101079.69
2022-12-26T07:18:55.759Z,101078.13
2022-12-26T07:21:23.242Z,101067.94
2022-12-26T07:23:50.597Z,101050.88
2022-12-26T07:26:17.337Z,101066.78
2022-12-26T07:28:43.910Z,101069.09
2022-12-26T07:31:16.233Z,101067.19
2022-12-26T07:33:42.853Z,101073.22
2022-12-26T07:36:09.384Z,101059.66
2022-12-26T07:38:35.932Z,101058.56
2022-12-26T07:41:22.440Z,101060.47
2022-12-26T07:43:48.893Z,101054.41
2022-12-26T07:46:15.415Z,101056.31
2022-12-26T07:48:41.924Z,101061.63
2022-12-26T07:51:08.404Z,101067.25
2022-12-26T07:53:34.911Z,101063.78
2022-12-26T07:56:01.719Z,101060.31
2022-12-26T07:58:28.308Z,101074.31
2022-12-26T08:00:54.844Z,101072.00
2022-12-26T08:03:21.680Z,101067.03
2022-12-26T08:05:49.302Z,101062.84
2022-12-26T08:08:16.415Z,101068.81
2022-12-26T08:10:42.987Z,101066.84
2022-12-26T08:13:09.573Z,101061.03
2022-12-26T08:15:39.531Z,101065.44
2022-12-26T08:18:07.272Z,101072.97
2022-12-26T08:20:34.113Z,101066.53
2022-12-26T08:23:00.907Z,101077.88
2022-12-26T08:25:27.680Z,101072.91
2022-12-26T08:27:54.148Z,101077.78
2022-12-26T08:30:20.643Z,101081.19
2022-12-26T08:32:47.169Z,101088.72
2022-12-26T08:35:13.736Z,101087.50
2022-12-26T08:37:40.564Z,101095.38
2022-12-26T08:40:07.672Z,101093.06
2022-12-26T08:42:40.055Z,101097.13
2022-12-26T08:45:11.319Z,101106.50
2022-12-26T08:47:38.099Z,101102.19
2022-12-26T08:50:04.908Z,101096.38
2022-12-26T08:52:31.365Z,101100.88
2022-12-26T08:54:57.824Z,101104.59
2022-12-26T08:57:24.294Z,101104.94
2022-12-26T08:59:50.761Z,101112.91
2022-12-26T09:02:17.432Z,101109.09
2022-12-26T09:04:44.042Z,101126.50
2022-12-26T09:07:10.564Z,101125.34
2022-12-26T09:09:37.178Z,101137.44
2022-12-26T09:12:03.733Z,101145.72
2022-12-26T09:14:30.234Z,101149.88
2022-12-26T09:16:56.736Z,101163.13
2022-12-26T09:19:23.235Z,101157.81
2022-12-26T09:22:10.571Z,101157.81
2022-12-26T09:24:37.007Z,101172.59
2022-12-26T09:27:03.529Z,101185.03
2022-12-26T09:29:30.016Z,101200.19
2022-12-26T09:31:56.486Z,101212.38
2022-12-26T09:34:22.942Z,101206.38
2022-12-26T09:36:49.553Z,101218.22
2022-12-26T09:39:16.423Z,101234.53
2022-12-26T09:41:43.066Z,101227.75
2022-12-26T09:44:19.207Z,101233.47
2022-12-26T09:47:14.613Z,101232.31
2022-12-26T09:50:02.072Z,101237.59
2022-12-26T09:52:40.684Z,101256.97
2022-12-26T09:55:36.401Z,101280.50
2022-12-26T09:58:43.405Z,101294.88
2022-12-26T10:01:13.873Z,101298.22
2022-12-26T10:03:53.589Z,101317.28
2022-12-26T10:06:22.691Z,101317.72
2022-12-26T10:09:15.328Z,101321.44
2022-12-26T10:12:07.741Z,101327.56
2022-12-26T10:14:54.997Z,101331.78
2022-12-26T10:17:28.477Z,101334.88
2022-12-26T10:20:01.130Z,101344.78
2022-12-26T10:22:56.399Z,101355.84
2022-12-26T10:25:33.957Z,101373.38
2022-12-26T10:28:02.295Z,101369.63
2022-12-26T10:30:37.486Z,101378.03
2022-12-26T10:33:12.921Z,101385.63
2022-12-26T10:35:43.533Z,101377.34
2022-12-26T10:38:27.445Z,101386.44
2022-12-26T10:40:56.448Z,101393.34
2022-12-26T10:43:31.154Z,101397.22
2022-12-26T10:46:12.957Z,101386.69
2022-12-26T10:48:39.738Z,101393.88
2022-12-26T10:51:06.268Z,101399.56
2022-12-26T10:53:34.743Z,101409.41
2022-12-26T10:56:01.867Z,101414.00
2022-12-26T10:58:36.456Z,101419.28
2022-12-26T11:01:28.101Z,101406.09
2022-12-26T11:04:44.389Z,101407.94
2022-12-26T11:07:11.085Z,101412.09
2022-12-26T11:09:37.856Z,101425.38
2022-12-26T11:12:05.435Z,101435.13
2022-12-26T11:14:39.616Z,101432.34
2022-12-26T11:17:28.772Z,101440.25
2022-12-26T11:20:21.414Z,101435.25
2022-12-26T11:22:48.403Z,101434.56
2022-12-26T11:25:25.072Z,101444.41
2022-12-26T11:27:55.265Z,101450.50
2022-12-26T11:30:23.861Z,101454.31
2022-12-26T11:33:30.623Z,101448.72
2022-12-26T11:36:05.890Z,101462.72
2022-12-26T11:38:45.392Z,101476.28
2022-12-26T11:41:31.903Z,101477.09
2022-12-26T11:44:10.496Z,101482.00
2022-12-26T11:46:44.090Z,101473.59
2022-12-26T11:49:17.374Z,101470.97
2022-12-26T11:51:46.999Z,101492.50
2022-12-26T11:54:21.549Z,101486.41
2022-12-26T11:56:49.520Z,101485.25
2022-12-26T11:59:23.492Z,101479.97
2022-12-26T12:02:15.277Z,101493.56
2022-12-26T12:04:42.431Z,101489.31
2022-12-26T12:07:38.847Z,101487.00
2022-12-26T12:10:33.805Z,101495.31
2022-12-26T12:13:14.739Z,101496.56
2022-12-26T12:15:51.885Z,101494.03
2022-12-26T12:18:31.253Z,101497.56
2022-12-26T12:21:20.949Z,101499.94
2022-12-26T12:23:55.338Z,101499.59
2022-12-26T12:26:32.767Z,101502.31
2022-12-26T12:29:15.225Z,101503.44
2022-12-26T12:32:03.089Z,101507.28
2022-12-26T12:34:53.145Z,101500.88
2022-12-26T12:37:28.848Z,101498.66
2022-12-26T12:40:22.952Z,101513.78
2022-12-26T12:43:13.754Z,101513.06
2022-12-26T12:46:11.272Z,101512.69
2022-12-26T12:48:40.934Z,101509.69
2022-12-26T12:52:12.112Z,101520.63
2022-12-26T12:55:01.155Z,101525.19
2022-12-26T12:57:45.681Z,101535.00
2022-12-26T13:00:14.618Z,101531.97
2022-12-26T13:02:49.776Z,101524.78
2022-12-26T13:05:39.350Z,101521.41
2022-12-26T13:08:12.877Z,101530.06
2022-12-26T13:10:50.890Z,101533.84
2022-12-26T13:13:23.611Z,101533.44
2022-12-26T13:15:56.101Z,101535.00
2022-12-26T13:18:26.797Z,101544.84
2022-12-26T13:20:59.717Z,101544.81
2022-12-26T13:23:50.131Z,101544.38
2022-12-26T13:26:21.160Z,101542.78
2022-12-26T13:29:07.027Z,101538.91
2022-12-26T13:31:35.419Z,101538.44
2022-12-26T13:34:03.813Z,101540.25
2022-12-26T13:36:39.993Z,101546.28
2022-12-26T13:39:12.628Z,101551.94
2022-12-26T13:42:06.959Z,101552.31
2022-12-26T13:44:33.480Z,101558.75
2022-12-26T13:47:00.669Z,101565.22
2022-12-26T13:49:39.673Z,101562.22
2022-12-26T13:52:12.040Z,101567.09
2022-12-26T13:55:07.294Z,101569.41
2022-12-26T13:57:45.901Z,101572.84
2022-12-26T14:00:23.551Z,101576.66
2022-12-26T14:03:24.288Z,101576.78
2022-12-26T14:06:13.966Z,101581.78
2022-12-26T14:08:43.422Z,101592.09
2022-12-26T14:11:21.297Z,101603.09
2022-12-26T14:13:47.709Z,101603.13
2022-12-26T14:17:09.915Z,101606.59
2022-12-26T14:20:02.786Z,101609.31
2022-12-26T14:22:41.439Z,101614.25
2022-12-26T14:25:26.552Z,101618.81
2022-12-26T14:27:52.999Z,101628.28
2022-12-26T14:30:19.644Z,101635.50
2022-12-26T14:32:52.203Z,101640.84
2022-12-26T14:35:37.123Z,101640.09
2022-12-26T14:38:24.718Z,101644.66
2022-12-26T14:41:05.670Z,101651.44
2022-12-26T14:43:35.717Z,101652.97
2022-12-26T14:46:05.995Z,101651.47
2022-12-26T14:48:32.434Z,101657.50
2022-12-26T14:51:02.888Z,101658.63
2022-12-26T14:53:35.225Z,101659.03
2022-12-26T14:56:07.658Z,101665.81
2022-12-26T14:58:49.447Z,101666.97
2022-12-26T15:01:17.110Z,101668.88
2022-12-26T15:03:46.509Z,101676.44
2022-12-26T15:06:19.069Z,101673.44
2022-12-26T15:09:11.346Z,101677.22
2022-12-26T15:12:13.330Z,101681.00
2022-12-26T15:14:57.211Z,101679.13
2022-12-26T15:18:06.828Z,101690.44
2022-12-26T15:21:07.242Z,101702.13
2022-12-26T15:24:03.344Z,101704.44
2022-12-26T15:26:54.486Z,101700.28
2022-12-26T15:29:20.881Z,101707.44
2022-12-26T15:32:04.334Z,101704.44
2022-12-26T15:35:21.898Z,101711.97
2022-12-26T15:38:01.353Z,101726.28
2022-12-26T15:40:32.884Z,101723.28
2022-12-26T15:43:25.070Z,101719.88
2022-12-26T15:46:04.964Z,101719.13
2022-12-26T15:49:02.876Z,101728.16
2022-12-26T15:51:56.275Z,101721.72
2022-12-26T15:54:41.137Z,101725.47
2022-12-26T15:57:50.480Z,101732.63
2022-12-26T16:00:28.825Z,101740.16
2022-12-26T16:03:17.523Z,101746.53
2022-12-26T16:06:00.173Z,101740.13
2022-12-26T16:08:48.775Z,101749.91
2022-12-26T16:11:20.000Z,101750.25
2022-12-26T16:14:01.967Z,101758.16
2022-12-26T16:16:28.422Z,101756.25
2022-12-26T16:18:55.162Z,101758.50
2022-12-26T16:21:43.742Z,101755.84
2022-12-26T16:24:12.729Z,101761.81
2022-12-26T16:26:43.737Z,101769.72
2022-12-26T16:29:17.448Z,101762.94
2022-12-26T16:31:44.759Z,101763.31
2022-12-26T16:34:17.113Z,101763.28
2022-12-26T16:36:44.291Z,101771.91
2022-12-26T16:39:12.097Z,101781.28
2022-12-26T16:42:00.960Z,101788.03
2022-12-26T16:44:45.664Z,101791.00
2022-12-26T16:47:13.748Z,101782.31
2022-12-26T16:49:43.275Z,101772.50
2022-12-26T16:52:45.926Z,101775.50
2022-12-26T16:55:22.639Z,101777.75
2022-12-26T16:57:56.271Z,101777.72
2022-12-26T17:00:24.238Z,101787.44
2022-12-26T17:02:53.968Z,101787.00
2022-12-26T17:05:29.337Z,101790.34
2022-12-26T17:07:59.831Z,101807.63
2022-12-26T17:10:37.620Z,101814.38
2022-12-26T17:13:08.323Z,101810.56
2022-12-26T17:15:39.569Z,101812.06
2022-12-26T17:18:46.624Z,101813.53
2022-12-26T17:21:22.146Z,101819.56
2022-12-26T17:24:07.175Z,101816.88
2022-12-26T17:26:36.169Z,101813.47
2022-12-26T17:29:03.304Z,101808.53
2022-12-26T17:31:32.606Z,101811.50
2022-12-26T17:34:02.337Z,101814.88
2022-12-26T17:37:08.744Z,101812.94
2022-12-26T17:39:23.343Z,101812.91
2022-12-26T17:41:53.741Z,101819.25
2022-12-26T17:44:43.772Z,101829.72
2022-12-26T17:47:22.809Z,101823.31
2022-12-26T17:49:51.030Z,101824.78
2022-12-26T17:52:20.549Z,101824.78
2022-12-26T17:54:51.511Z,101827.75
2022-12-26T17:57:26.892Z,101827.75
2022-12-26T17:59:54.518Z,101832.63
2022-12-26T18:02:21.413Z,101830.34
2022-12-26T18:04:50.052Z,101837.47
2022-12-26T18:07:30.602Z,101841.63
2022-12-26T18:10:00.115Z,101839.03
2022-12-26T18:12:26.712Z,101842.47
2022-12-26T18:14:57.668Z,101846.22
2022-12-26T18:17:31.002Z,101851.88
2022-12-26T18:19:57.652Z,101851.53
2022-12-26T18:22:24.090Z,101855.28
2022-12-26T18:24:50.563Z,101853.34
2022-12-26T18:27:19.232Z,101857.84
2022-12-26T18:29:46.001Z,101866.09
2022-12-26T18:32:24.780Z,101864.19
2022-12-26T18:34:52.280Z,101876.16
2022-12-26T18:37:20.041Z,101875.75
2022-12-26T18:39:46.509Z,101878.34
2022-12-26T18:42:14.737Z,101890.03
2022-12-26T18:44:42.440Z,101891.91
2022-12-26T18:47:17.488Z,101897.09
2022-12-26T18:49:44.920Z,101893.00
2022-12-26T18:52:12.412Z,101899.06
2022-12-26T18:54:44.100Z,101899.53
2022-12-26T18:57:17.405Z,101899.19
2022-12-26T18:59:44.025Z,101900.34
2022-12-26T19:02:18.513Z,101904.09
2022-12-26T19:04:48.619Z,101902.97
2022-12-26T19:07:17.180Z,101915.31
2022-12-26T19:09:45.997Z,101908.16
2022-12-26T19:12:12.679Z,101911.56
2022-12-26T19:14:39.244Z,101916.13
2022-12-26T19:17:06.074Z,101925.94
2022-12-26T19:19:32.615Z,101924.09
2022-12-26T19:21:59.346Z,101927.84
2022-12-26T19:24:25.998Z,101930.06
2022-12-26T19:26:52.466Z,101935.69
2022-12-26T19:29:18.957Z,101936.44
2022-12-26T19:31:45.778Z,101937.22
2022-12-26T19:34:12.326Z,101936.09
2022-12-26T19:36:38.837Z,101940.94
2022-12-26T19:39:05.783Z,101945.44
2022-12-26T19:41:32.211Z,101946.22
2022-12-26T19:44:00.194Z,101949.19
2022-12-26T19:46:27.569Z,101948.50
2022-12-26T19:48:54.903Z,101948.13
2022-12-26T19:51:22.243Z,101951.16
2022-12-26T19:53:49.480Z,101945.53
2022-12-26T19:56:18.882Z,101955.66
2022-12-26T19:58:48.618Z,101960.53
2022-12-26T20:01:21.418Z,101955.25
2022-12-26T20:03:48.585Z,101949.66
2022-12-26T20:06:20.817Z,101951.94
2022-12-26T20:08:48.938Z,101948.94
2022-12-26T20:11:19.014Z,101962.84
2022-12-26T20:13:45.743Z,101954.56
2022-12-26T20:16:46.032Z,101952.28
2022-12-26T20:19:02.639Z,101942.47
2022-12-26T20:21:29.165Z,101952.94
2022-12-26T20:23:57.993Z,101954.41
2022-12-26T20:26:25.982Z,101956.28
2022-12-26T20:28:57.154Z,101955.91
2022-12-26T20:31:23.695Z,101956.63
2022-12-26T20:33:52.109Z,101955.50
2022-12-26T20:36:24.914Z,101958.13
2022-12-26T20:38:53.653Z,101960.81
2022-12-26T20:41:21.069Z,101947.28
2022-12-26T20:43:48.903Z,101951.44
2022-12-26T20:46:19.359Z,101964.16
2022-12-26T20:48:46.920Z,101965.66
2022-12-26T20:51:15.845Z,101977.66
2022-12-26T20:53:42.597Z,101982.91
2022-12-26T20:56:09.863Z,101972.41
2022-12-26T20:58:37.025Z,101974.28
2022-12-26T21:01:10.235Z,101987.41
2022-12-26T21:03:37.074Z,101989.28
2022-12-26T21:06:21.095Z,101986.25
2022-12-26T21:08:49.882Z,101996.41
2022-12-26T21:11:31.364Z,101992.72
2022-12-26T21:14:00.979Z,101991.22
2022-12-26T21:16:42.247Z,101988.16
2022-12-26T21:19:14.949Z,101996.41
2022-12-26T21:21:45.063Z,101997.19
2022-12-26T21:24:19.524Z,102005.47
2022-12-26T21:26:50.507Z,102005.13
2022-12-26T21:29:21.395Z,102006.22
2022-12-26T21:31:48.845Z,102010.38
2022-12-26T21:34:17.285Z,102006.22
2022-12-26T21:37:07.121Z,102011.50
2022-12-26T21:39:35.645Z,102009.25
2022-12-26T21:42:02.288Z,102019.41
2022-12-26T21:44:29.428Z,102017.91
2022-12-26T21:46:55.989Z,102019.03
2022-12-26T21:49:22.560Z,102027.69
2022-12-26T21:51:49.018Z,102031.09
2022-12-26T21:54:34.106Z,102028.81
2022-12-26T21:57:00.578Z,102031.84
2022-12-26T21:59:45.341Z,102030.69
2022-12-26T22:02:34.209Z,102040.06
2022-12-26T22:05:01.630Z,102040.38
2022-12-26T22:07:29.060Z,102041.06
2022-12-26T22:09:55.821Z,102052.63
2022-12-26T22:12:40.886Z,102054.09
2022-12-26T22:15:28.017Z,102045.81
2022-12-26T22:17:54.496Z,102063.84
2022-12-26T22:20:21.169Z,102060.88
2022-12-26T22:22:47.751Z,102065.72
2022-12-26T22:25:14.207Z,102059.72
2022-12-26T22:27:40.733Z,102062.28
2022-12-26T22:30:07.880Z,102068.31
2022-12-26T22:32:34.496Z,102069.41
2022-12-26T22:35:00.966Z,102067.88
2022-12-26T22:37:27.580Z,102073.50
2022-12-26T22:39:54.082Z,102078.34
2022-12-26T22:42:20.488Z,102080.97
2022-12-26T22:44:46.938Z,102079.47
2022-12-26T22:47:13.394Z,102083.19
2022-12-26T22:49:39.805Z,102088.81
2022-12-26T22:52:08.759Z,102086.53
2022-12-26T22:54:41.189Z,102091.03
2022-12-26T22:57:08.100Z,102092.13
2022-12-26T23:00:07.171Z,102092.47
2022-12-26T23:02:21.169Z,102094.69
2022-12-26T23:04:47.973Z,102090.91
2022-12-26T23:07:18.916Z,102092.78
2022-12-26T23:09:45.715Z,102093.91
2022-12-26T23:12:31.804Z,102095.38
2022-12-26T23:14:58.386Z,102093.50
2022-12-26T23:17:44.583Z,102088.25
2022-12-26T23:20:33.372Z,102095.38
2022-12-26T23:23:00.177Z,102096.81
2022-12-26T23:25:26.721Z,102089.69
2022-12-26T23:28:11.604Z,102094.19
2022-12-26T23:30:38.023Z,102094.53
2022-12-26T23:33:04.603Z,102105.06
2022-12-26T23:35:31.109Z,102105.81
2022-12-26T23:37:57.599Z,102114.53
2022-12-26T23:40:24.208Z,102116.03
2022-12-26T23:42:50.614Z,102118.66
2022-12-26T23:45:17.162Z,102123.94
2022-12-26T23:47:45.064Z,102122.81
2022-12-26T23:50:13.648Z,102117.56
2022-12-26T23:52:40.164Z,102116.44
2022-12-26T23:55:07.693Z,102110.81
2022-12-26T23:57:34.241Z,102121.41
